Time;durP1;ratioP1;P1;durP2;ratioP2;P2;SDS_P1;SDS_P2;PMS_P1;PMS_P2;Temp;Humidity;BMP_temperature;BMP_pressure;BME280_temperature;BME280_humidity;BME280_pressure;Samples;Min_cycle;Max_cycle;Signal;HPM_P1;HPM_P2
2022/01/04 00:01:39;;;;;;;12.45;4.00;;;;;;;13.71;80.13;101487.34;5048504;28;20037;-75
2022/01/04 00:04:07;;;;;;;10.88;3.17;;;;;;;13.73;80.21;101490.00;5048493;28;20037;-75
2022/01/04 00:06:35;;;;;;;8.68;3.50;;;;;;;13.74;80.25;101486.47;5048788;28;20136;-74
2022/01/04 00:09:04;;;;;;;11.00;3.35;;;;;;;13.72;80.36;101493.53;5046717;28;20141;-75
2022/01/04 00:11:44;;;;;;;9.82;4.20;;;;;;;13.71;80.22;101505.91;5047469;28;20067;-75
2022/01/04 00:14:14;;;;;;;10.10;3.28;;;;;;;13.69;80.25;101506.75;5047353;28;20044;-74
2022/01/04 00:16:43;;;;;;;11.80;4.57;;;;;;;13.68;80.30;101518.22;5052748;28;20056;-74
2022/01/04 00:19:12;;;;;;;8.40;4.05;;;;;;;13.63;80.26;101520.81;5031135;28;20485;-75
2022/01/04 00:21:42;;;;;;;11.80;5.20;;;;;;;13.63;80.21;101523.47;5033523;28;20049;-74
2022/01/04 00:24:10;;;;;;;11.95;5.45;;;;;;;13.60;80.29;101520.75;5048453;28;20045;-75
2022/01/04 00:26:38;;;;;;;13.50;5.40;;;;;;;13.53;80.12;101516.22;5046852;28;20041;-74
2022/01/04 00:29:06;;;;;;;15.00;5.50;;;;;;;13.47;80.18;101516.13;5048631;28;20124;-74
2022/01/04 00:31:35;;;;;;;18.83;8.48;;;;;;;13.46;80.03;101527.59;5067904;28;20036;-74
2022/01/04 00:34:03;;;;;;;8.30;5.45;;;;;;;13.36;79.77;101526.59;5068046;28;20045;-74
2022/01/04 00:36:31;;;;;;;18.95;15.30;;;;;;;12.99;78.79;101530.34;5066786;28;20047;-75
2022/01/04 00:38:59;;;;;;;6.85;4.32;;;;;;;12.67;78.34;101529.72;5058247;28;20115;-74
2022/01/04 00:41:27;;;;;;;12.18;7.25;;;;;;;12.36;78.54;101530.88;5064126;28;20128;-74
2022/01/04 00:43:55;;;;;;;17.35;10.38;;;;;;;12.39;78.98;101532.69;5068401;28;20115;-74
2022/01/04 00:46:23;;;;;;;12.98;5.65;;;;;;;12.42;78.54;101534.50;5069199;28;20047;-75
2022/01/04 00:49:11;;;;;;;7.75;4.93;;;;;;;12.15;77.98;101530.41;5070905;28;20090;-73
2022/01/04 00:51:40;;;;;;;12.73;4.82;;;;;;;12.11;78.39;101528.56;5068089;28;20528;-74
2022/01/04 00:54:08;;;;;;;12.77;6.35;;;;;;;12.23;78.74;101517.34;5051014;28;20037;-74
2022/01/04 00:56:37;;;;;;;14.85;6.10;;;;;;;12.32;78.57;101526.38;5051511;28;20036;-74
2022/01/04 00:59:06;;;;;;;10.30;3.10;;;;;;;12.06;77.88;101531.97;5051859;28;20041;-74
2022/01/04 01:01:35;;;;;;;6.53;2.35;;;;;;;11.70;77.93;101532.00;5050662;28;20041;-75
2022/01/04 01:04:05;;;;;;;11.50;9.27;;;;;;;11.44;78.40;101524.34;5048339;28;20447;-74
2022/01/04 01:06:33;;;;;;;18.90;16.77;;;;;;;11.34;79.04;101532.00;5050775;28;20041;-74
2022/01/04 01:09:02;;;;;;;12.30;9.25;;;;;;;11.42;79.38;101527.81;5050747;28;20127;-74
2022/01/04 01:11:30;;;;;;;15.85;14.10;;;;;;;11.35;78.78;101529.41;5050658;28;20124;-74
2022/01/04 01:13:58;;;;;;;11.48;9.30;;;;;;;11.25;78.48;101529.13;5050677;28;20103;-74
2022/01/04 01:16:26;;;;;;;30.05;26.95;;;;;;;11.15;78.78;101521.00;5051487;28;20044;-74
2022/01/04 01:18:54;;;;;;;39.42;35.35;;;;;;;11.23;79.06;101521.16;5051847;28;20037;-74
2022/01/04 01:21:23;;;;;;;17.67;15.40;;;;;;;11.50;79.28;101513.91;5051126;28;20040;-74
2022/01/04 01:23:51;;;;;;;7.32;3.22;;;;;;;11.42;78.46;101515.47;5050295;28;20045;-74
2022/01/04 01:26:19;;;;;;;8.38;3.75;;;;;;;11.29;78.42;101521.31;5050369;28;20045;-74
2022/01/04 01:28:47;;;;;;;7.75;5.95;;;;;;;11.21;78.73;101514.97;5048930;28;20047;-74
2022/01/04 01:31:16;;;;;;;23.55;13.70;;;;;;;11.35;79.39;101516.19;5049871;28;20048;-74
2022/01/04 01:33:44;;;;;;;24.65;13.25;;;;;;;11.55;79.09;101514.03;5033540;28;20045;-74
2022/01/04 01:36:11;;;;;;;14.55;7.43;;;;;;;11.65;78.60;101509.84;5054074;28;20044;-74
2022/01/04 01:38:41;;;;;;;12.68;6.25;;;;;;;11.75;78.28;101502.16;5069930;28;20515;-74
2022/01/04 01:41:09;;;;;;;10.93;4.60;;;;;;;11.82;78.22;101498.81;5068320;28;20085;-74
2022/01/04 01:43:37;;;;;;;11.85;5.10;;;;;;;11.87;78.11;101491.88;5070224;28;20083;-74
2022/01/04 01:46:05;;;;;;;13.70;4.88;;;;;;;11.94;77.92;101488.53;5069850;28;20044;-75
2022/01/04 01:48:33;;;;;;;9.07;4.25;;;;;;;11.92;77.57;101479.66;5059836;28;20045;-74
2022/01/04 01:51:02;;;;;;;6.57;3.55;;;;;;;11.78;77.32;101481.09;5053350;28;20041;-74
2022/01/04 01:53:29;;;;;;;10.60;5.55;;;;;;;11.74;77.46;101483.66;5044838;28;20087;-74
2022/01/04 01:55:59;;;;;;;8.27;4.45;;;;;;;11.79;77.53;101482.88;5050936;28;20499;-75
2022/01/04 01:58:26;;;;;;;10.70;4.85;;;;;;;11.80;77.49;101467.91;5044712;28;20562;-74
2022/01/04 02:00:55;;;;;;;13.02;5.10;;;;;;;11.83;77.39;101478.53;5050447;28;20052;-75
2022/01/04 02:03:23;;;;;;;9.80;4.18;;;;;;;11.83;77.28;101476.78;5051178;28;20427;-75
2022/01/04 02:05:51;;;;;;;9.57;4.28;;;;;;;11.76;77.17;101488.09;5049960;28;20048;-74
2022/01/04 02:08:20;;;;;;;10.32;5.20;;;;;;;11.63;77.13;101477.16;5032438;28;20045;-74
2022/01/04 02:10:49;;;;;;;33.55;30.33;;;;;;;11.59;77.34;101486.78;5034918;28;20041;-75
2022/01/04 02:13:19;;;;;;;16.98;12.93;;;;;;;11.63;77.34;101490.38;5051020;28;20639;-74
2022/01/04 02:15:47;;;;;;;16.67;12.10;;;;;;;11.69;77.40;101479.94;5048173;28;20424;-74
2022/01/04 02:18:14;;;;;;;13.30;6.25;;;;;;;11.72;77.46;101486.22;5065460;28;20036;-74
2022/01/04 02:20:44;;;;;;;12.75;5.68;;;;;;;11.77;77.47;101481.94;5069822;28;20041;-74
2022/01/04 02:23:12;;;;;;;12.98;6.95;;;;;;;11.75;77.40;101488.94;5068947;28;20040;-74
2022/01/04 02:25:40;;;;;;;14.50;9.32;;;;;;;11.67;77.33;101495.81;5068636;28;20037;-74
2022/01/04 02:28:08;;;;;;;12.38;8.70;;;;;;;11.69;77.48;101495.81;5069601;28;20036;-74
2022/01/04 02:30:36;;;;;;;8.88;5.03;;;;;;;11.71;77.60;101492.34;5067090;28;20463;-75
2022/01/04 02:33:04;;;;;;;13.82;7.60;;;;;;;11.73;77.71;101503.88;5049197;28;20048;-74
2022/01/04 02:35:33;;;;;;;12.73;6.25;;;;;;;11.73;77.46;101502.97;5049324;28;20074;-74
2022/01/04 02:38:03;;;;;;;12.27;9.25;;;;;;;11.71;77.55;101512.63;5049694;28;20056;-75
2022/01/04 02:40:32;;;;;;;12.18;7.97;;;;;;;11.73;77.65;101510.91;5050526;28;20052;-74
2022/01/04 02:43:01;;;;;;;12.85;5.60;;;;;;;11.76;77.77;101508.34;5050043;28;20135;-74
2022/01/04 02:45:29;;;;;;;14.40;4.18;;;;;;;11.79;77.82;101508.44;5065404;28;20041;-74
2022/01/04 02:47:56;;;;;;;12.38;3.75;;;;;;;11.78;78.26;101504.91;5049236;28;20391;-74
2022/01/04 02:50:25;;;;;;;10.07;5.85;;;;;;;11.83;78.36;101503.25;5048373;28;20497;-75
2022/01/04 02:52:53;;;;;;;13.15;7.10;;;;;;;11.84;78.55;101507.69;5048757;28;20573;-74
2022/01/04 02:55:22;;;;;;;10.50;4.22;;;;;;;11.89;78.58;101511.31;5049185;28;20056;-74
2022/01/04 02:57:50;;;;;;;15.65;7.78;;;;;;;11.93;78.57;101515.84;5049716;28;20110;-74
2022/01/04 03:00:19;;;;;;;11.93;6.38;;;;;;;11.72;78.11;101525.00;5031313;28;20048;-74
2022/01/04 03:02:48;;;;;;;13.82;7.38;;;;;;;11.61;78.40;101522.13;5049123;28;20045;-74
2022/01/04 03:05:16;;;;;;;11.38;5.60;;;;;;;11.64;78.60;101518.63;5050063;28;20123;-74
2022/01/04 03:07:44;;;;;;;10.32;4.22;;;;;;;11.73;78.77;101522.38;5048473;28;20072;-74
2022/01/04 03:10:12;;;;;;;10.15;4.15;;;;;;;11.83;78.76;101519.13;5048967;28;20045;-74
2022/01/04 03:12:44;;;;;;;9.82;3.85;;;;;;;11.93;78.77;101522.88;5033842;28;20045;-74
2022/01/04 03:15:13;;;;;;;8.35;3.72;;;;;;;12.00;78.77;101524.81;5065981;28;20036;-74
2022/01/04 03:17:41;;;;;;;10.20;4.95;;;;;;;12.05;78.62;101522.25;5064512;28;20040;-74
2022/01/04 03:20:11;;;;;;;21.27;12.75;;;;;;;12.00;78.53;101527.44;5068356;28;20082;-74
2022/01/04 03:22:38;;;;;;;15.57;7.57;;;;;;;11.95;78.62;101531.72;5069357;28;20082;-74
2022/01/04 03:25:07;;;;;;;10.70;4.85;;;;;;;12.04;78.81;101531.03;5067437;28;20036;-75
2022/01/04 03:27:36;;;;;;;11.73;3.67;;;;;;;12.22;78.89;101531.44;5069948;28;20040;-74
2022/01/04 03:30:07;;;;;;;7.60;2.90;;;;;;;12.36;78.90;101536.16;5067934;28;20036;-74
2022/01/04 03:32:35;;;;;;;7.78;2.83;;;;;;;12.46;78.88;101537.25;5068591;28;20131;-74
2022/01/04 03:35:03;;;;;;;12.75;4.45;;;;;;;12.57;78.75;101540.09;5069321;28;20046;-74
2022/01/04 03:37:31;;;;;;;9.63;5.40;;;;;;;12.61;78.62;101537.53;5069711;28;20076;-74
2022/01/04 03:39:59;;;;;;;7.43;4.10;;;;;;;12.70;78.60;101540.38;5069066;28;20036;-75
2022/01/04 03:42:27;;;;;;;11.40;4.35;;;;;;;12.76;78.56;101543.13;5067921;28;20043;-74
2022/01/04 03:44:55;;;;;;;9.50;3.60;;;;;;;12.83;78.44;101545.91;5068138;28;20033;-75
2022/01/04 03:47:25;;;;;;;8.68;3.35;;;;;;;12.88;78.42;101541.56;5068182;28;20119;-74
2022/01/04 03:49:53;;;;;;;9.23;4.93;;;;;;;12.88;78.37;101541.56;5054192;28;20049;-74
2022/01/04 03:52:21;;;;;;;10.00;3.63;;;;;;;12.84;78.44;101539.75;5039499;28;20040;-74
2022/01/04 03:54:49;;;;;;;9.20;5.00;;;;;;;12.81;78.41;101540.56;5068389;28;20049;-74
2022/01/04 03:57:17;;;;;;;9.15;4.25;;;;;;;12.78;78.31;101544.06;5067319;28;20098;-74
2022/01/04 03:59:46;;;;;;;7.55;3.40;;;;;;;12.74;78.43;101544.84;5068879;28;20056;-74
2022/01/04 04:02:14;;;;;;;10.23;5.20;;;;;;;12.69;78.37;101543.88;5066462;28;20044;-74
2022/01/04 04:04:43;;;;;;;13.23;4.93;;;;;;;12.60;78.29;101542.84;5067493;28;20044;-74
2022/01/04 04:07:12;;;;;;;11.80;5.38;;;;;;;12.53;78.55;101548.88;5068463;28;20036;-74
2022/01/04 04:09:40;;;;;;;9.07;3.15;;;;;;;12.57;78.81;101551.59;5076112;28;20040;-73
2022/01/04 04:12:09;;;;;;;12.90;5.38;;;;;;;12.62;78.73;101555.22;5067187;28;20045;-74
2022/01/04 04:14:37;;;;;;;11.57;4.15;;;;;;;12.65;78.64;101560.59;5067572;28;20488;-74
2022/01/04 04:17:05;;;;;;;12.00;3.22;;;;;;;12.64;78.62;101558.81;5067306;28;20041;-74
2022/01/04 04:19:33;;;;;;;8.50;3.45;;;;;;;12.62;78.55;101564.91;5068486;28;20135;-74
2022/01/04 04:22:02;;;;;;;11.63;4.00;;;;;;;12.63;78.52;101561.41;5066827;28;20106;-75
2022/01/04 04:24:30;;;;;;;9.88;3.97;;;;;;;12.60;78.52;101559.59;5068334;28;20117;-74
2022/01/04 04:26:58;;;;;;;13.15;3.75;;;;;;;12.56;78.48;101554.19;5068350;28;20115;-74
2022/01/04 04:29:26;;;;;;;10.77;4.22;;;;;;;12.50;78.46;101554.09;5068783;28;20035;-74
2022/01/04 04:31:54;;;;;;;9.65;4.22;;;;;;;12.40;78.44;101560.06;5067681;28;20033;-74
2022/01/04 04:34:22;;;;;;;18.33;11.30;;;;;;;12.23;78.63;101567.63;5067087;28;20050;-74
2022/01/04 04:36:50;;;;;;;12.18;4.32;;;;;;;12.14;78.91;101560.38;5064513;28;20033;-74
2022/01/04 04:39:19;;;;;;;9.07;4.50;;;;;;;12.15;79.06;101559.53;5066878;28;20052;-74
2022/01/04 04:41:49;;;;;;;9.18;3.42;;;;;;;12.14;79.10;101562.16;5067503;28;20116;-74
2022/01/04 04:44:17;;;;;;;8.73;3.45;;;;;;;12.19;79.00;101560.50;5067298;28;20159;-74
2022/01/04 04:46:45;;;;;;;14.18;4.93;;;;;;;12.17;78.85;101555.16;5066971;28;20041;-74
2022/01/04 04:49:13;;;;;;;12.30;4.22;;;;;;;12.17;78.73;101559.56;5066026;28;20040;-74
2022/01/04 04:51:41;;;;;;;8.27;4.15;;;;;;;12.09;78.68;101556.75;5068549;28;20044;-74
2022/01/04 04:54:10;;;;;;;8.95;3.20;;;;;;;12.05;78.57;101559.28;5067171;28;20036;-74
2022/01/04 04:56:39;;;;;;;10.52;5.05;;;;;;;12.02;78.51;101561.84;5059249;28;20660;-74
2022/01/04 04:59:07;;;;;;;9.52;4.60;;;;;;;11.95;78.51;101560.81;5050375;28;20040;-74
2022/01/04 05:01:36;;;;;;;14.07;9.77;;;;;;;11.91;78.69;101566.91;5066220;28;20091;-74
2022/01/04 05:04:04;;;;;;;38.78;25.98;;;;;;;11.88;78.99;101567.72;5067712;28;20040;-74
2022/01/04 05:06:33;;;;;;;37.25;22.30;;;;;;;11.90;79.04;101565.13;5068597;28;20127;-74
2022/01/04 05:09:00;;;;;;;35.42;20.42;;;;;;;11.87;79.18;101576.56;5066670;28;20047;-74
2022/01/04 05:11:29;;;;;;;36.95;24.88;;;;;;;11.84;79.26;101584.41;5067771;28;20090;-74
2022/01/04 05:13:59;;;;;;;46.45;30.75;;;;;;;11.83;79.30;101577.31;5065859;28;20064;-75
2022/01/04 05:16:27;;;;;;;36.22;25.27;;;;;;;11.79;79.26;101579.88;5066168;28;20067;-75
2022/01/04 05:18:55;;;;;;;35.17;23.77;;;;;;;11.79;79.50;101566.63;5068403;28;20129;-74
2022/01/04 05:21:23;;;;;;;30.73;21.73;;;;;;;11.79;79.50;101562.25;5062673;28;20051;-74
2022/01/04 05:23:52;;;;;;;25.35;16.63;;;;;;;11.79;79.46;101556.94;5065289;28;20075;-74
2022/01/04 05:26:20;;;;;;;23.45;16.25;;;;;;;11.76;79.47;101554.22;5034816;28;20124;-74
2022/01/04 05:28:48;;;;;;;24.92;16.33;;;;;;;11.73;79.33;101546.19;5067212;28;20040;-74
2022/01/04 05:31:17;;;;;;;19.95;12.80;;;;;;;11.70;79.41;101547.84;5058898;28;20056;-74
2022/01/04 05:33:45;;;;;;;25.67;14.50;;;;;;;11.65;79.49;101550.41;5049899;28;20037;-74
2022/01/04 05:36:13;;;;;;;22.58;14.20;;;;;;;11.64;79.49;101550.38;5062804;28;20052;-75
2022/01/04 05:38:41;;;;;;;19.73;12.15;;;;;;;11.62;79.53;101547.66;5071004;28;20118;-74
2022/01/04 05:41:09;;;;;;;17.42;10.25;;;;;;;11.63;79.59;101538.88;5070333;28;20039;-74
2022/01/04 05:43:38;;;;;;;18.38;10.45;;;;;;;11.64;79.59;101548.63;5069558;28;20073;-74
2022/01/04 05:46:05;;;;;;;21.42;10.70;;;;;;;11.63;79.54;101551.22;5071164;28;20036;-75
2022/01/04 05:48:35;;;;;;;26.55;15.68;;;;;;;11.66;79.58;101556.59;5071264;28;20065;-74
2022/01/04 05:51:04;;;;;;;24.95;16.27;;;;;;;11.67;79.49;101554.00;5070171;28;20037;-74
2022/01/04 05:53:33;;;;;;;22.65;11.77;;;;;;;11.74;79.42;101548.03;5064242;28;20041;-74
2022/01/04 05:56:01;;;;;;;20.08;13.20;;;;;;;11.79;79.47;101540.19;5069972;28;20397;-74
2022/01/04 05:58:30;;;;;;;18.33;11.15;;;;;;;11.81;79.52;101544.66;5052243;28;20119;-74
2022/01/04 06:00:58;;;;;;;21.27;13.38;;;;;;;11.85;79.50;101530.63;5069696;28;20045;-74
2022/01/04 06:03:27;;;;;;;18.73;11.60;;;;;;;11.88;79.55;101533.34;5069519;28;20064;-75
2022/01/04 06:05:57;;;;;;;18.42;11.95;;;;;;;11.93;79.55;101539.66;5070205;28;20068;-74
2022/01/04 06:08:30;;;;;;;18.52;15.95;;;;;;;12.01;79.58;101547.75;5061557;28;20037;-74
2022/01/04 06:10:58;;;;;;;15.15;11.85;;;;;;;12.06;79.46;101550.50;5049381;28;20037;-74
2022/01/04 06:16:16;;;;;;;19.55;12.38;;;;;;;12.17;79.89;101541.94;4995293;28;20077;-73
2022/01/04 06:18:44;;;;;;;17.63;12.73;;;;;;;12.32;79.81;101550.19;5046578;28;20052;-74
2022/01/04 06:21:13;;;;;;;17.95;11.73;;;;;;;12.52;79.80;101560.31;5070138;28;20037;-74
2022/01/04 06:23:41;;;;;;;13.00;9.63;;;;;;;12.71;79.73;101565.13;5067613;28;20086;-74
2022/01/04 06:26:10;;;;;;;20.48;18.38;;;;;;;12.97;79.65;101568.25;5061381;28;20612;-74
2022/01/04 06:28:39;;;;;;;18.83;16.83;;;;;;;13.11;79.89;101564.13;5054674;28;20045;-74
2022/01/04 06:31:07;;;;;;;20.85;14.35;;;;;;;13.34;80.46;101570.75;5040018;28;20061;-74
2022/01/04 06:33:35;;;;;;;16.60;11.70;;;;;;;13.62;80.80;101573.84;5029989;28;20429;-74
2022/01/04 06:36:04;;;;;;;14.15;11.15;;;;;;;13.86;81.06;101576.88;5022548;28;20037;-74
2022/01/04 06:38:33;;;;;;;14.65;11.35;;;;;;;14.21;81.23;101588.94;5048702;28;20037;-74
2022/01/04 06:41:01;;;;;;;15.00;10.88;;;;;;;14.35;81.18;101586.47;5048942;28;20041;-74
2022/01/04 06:43:29;;;;;;;14.48;9.27;;;;;;;14.34;81.13;101582.91;5047751;28;20068;-74
2022/01/04 06:45:56;;;;;;;14.77;10.13;;;;;;;14.26;80.62;101599.59;5044253;28;20053;-74
2022/01/04 06:48:25;;;;;;;15.88;9.00;;;;;;;14.23;80.27;101603.13;5034471;28;20504;-75
2022/01/04 06:50:53;;;;;;;13.45;8.65;;;;;;;14.19;79.70;101598.63;5032976;28;20041;-74
2022/01/04 06:53:21;;;;;;;11.43;7.90;;;;;;;14.11;79.40;101612.69;5038544;28;20493;-73
2022/01/04 06:55:52;;;;;;;12.55;6.85;;;;;;;13.99;79.15;101602.75;5058615;28;20037;-74
2022/01/04 06:58:20;;;;;;;13.20;7.43;;;;;;;13.84;78.77;101602.53;5067226;28;20102;-73
2022/01/04 07:00:48;;;;;;;13.10;7.75;;;;;;;13.82;78.54;101606.91;5060792;28;20136;-74
2022/01/04 07:03:16;;;;;;;15.45;10.65;;;;;;;14.08;78.96;101600.25;5031388;28;20079;-74
2022/01/04 07:05:44;;;;;;;13.73;8.20;;;;;;;14.49;79.32;101602.63;5049696;28;20056;-74
2022/01/04 07:08:12;;;;;;;10.55;6.10;;;;;;;14.89;79.30;101599.59;5048183;28;20037;-74
2022/01/04 07:10:40;;;;;;;10.82;7.10;;;;;;;15.26;79.34;101595.53;5049724;28;20068;-74
2022/01/04 07:13:10;;;;;;;8.73;4.80;;;;;;;15.59;79.23;101594.97;5046926;28;20036;-74
2022/01/04 07:15:39;;;;;;;4.28;2.13;;;;;;;15.89;78.31;101602.31;5044974;28;20748;-75
2022/01/04 07:18:06;;;;;;;7.05;2.90;;;;;;;16.11;77.07;101600.69;5047277;28;20047;-74
2022/01/04 07:20:34;;;;;;;5.35;3.05;;;;;;;16.33;76.53;101602.63;5047594;28;20041;-74
2022/01/04 07:23:02;;;;;;;8.23;5.15;;;;;;;16.56;76.27;101606.28;5047125;28;20095;-75
2022/01/04 07:25:31;;;;;;;11.25;6.75;;;;;;;16.83;75.90;101612.63;5057769;28;20063;-74
2022/01/04 07:27:59;;;;;;;10.13;4.88;;;;;;;17.13;75.71;101618.09;5066014;28;20124;-75
2022/01/04 07:30:29;;;;;;;7.22;3.28;;;;;;;17.47;75.09;101633.25;5061909;28;20120;-74
2022/01/04 07:32:57;;;;;;;8.93;3.28;;;;;;;17.78;74.73;101631.56;5052491;28;20040;-75
2022/01/04 07:35:25;;;;;;;10.65;6.47;;;;;;;18.12;74.42;101635.06;5053179;28;20043;-75
2022/01/04 07:37:53;;;;;;;14.50;8.80;;;;;;;18.35;73.34;101636.81;5048754;28;20071;-74
2022/01/04 07:40:21;;;;;;;16.67;11.35;;;;;;;18.41;72.60;101639.47;5066446;28;20123;-74
2022/01/04 07:42:49;;;;;;;17.40;12.68;;;;;;;18.40;71.88;101643.94;5069211;28;20041;-75
2022/01/04 07:45:17;;;;;;;14.50;6.53;;;;;;;18.59;71.40;101637.66;5064483;28;20119;-75
2022/01/04 07:47:46;;;;;;;8.13;3.88;;;;;;;18.94;70.29;101636.66;5031404;28;20045;-75
2022/01/04 07:50:14;;;;;;;10.05;6.30;;;;;;;19.12;69.56;101636.53;5049346;28;20115;-75
2022/01/04 07:52:42;;;;;;;8.40;6.00;;;;;;;19.07;68.92;101635.69;5049282;28;20523;-75
2022/01/04 07:55:10;;;;;;;7.15;2.58;;;;;;;19.17;68.27;101632.03;5047986;28;20132;-75
2022/01/04 07:57:39;;;;;;;6.10;2.17;;;;;;;19.10;67.31;101631.19;5048446;28;20040;-75
2022/01/04 08:00:08;;;;;;;9.43;2.60;;;;;;;19.20;65.88;101628.47;5067197;28;20048;-74
2022/01/04 08:02:41;;;;;;;8.20;3.08;;;;;;;19.21;64.89;101628.47;5055532;28;20068;-75
2022/01/04 08:05:12;;;;;;;7.20;3.33;;;;;;;19.26;64.29;101628.44;5069387;28;20048;-75
2022/01/04 08:07:41;;;;;;;6.40;3.13;;;;;;;19.11;64.09;101641.00;5068773;28;20049;-75
2022/01/04 08:10:09;;;;;;;11.45;3.58;;;;;;;19.03;63.96;101640.16;5074040;28;20064;-75
2022/01/04 08:12:37;;;;;;;14.93;11.23;;;;;;;18.99;63.87;101645.53;5065393;28;20162;-74
2022/01/04 08:15:06;;;;;;;10.63;8.25;;;;;;;18.88;63.59;101637.56;5047084;28;20037;-75
2022/01/04 08:17:36;;;;;;;14.27;7.97;;;;;;;18.77;63.06;101638.50;5047831;28;20048;-75
2022/01/04 08:20:05;;;;;;;12.98;7.07;;;;;;;18.71;63.00;101634.94;5047354;28;20037;-75
2022/01/04 08:22:35;;;;;;;12.45;5.20;;;;;;;18.73;62.49;101634.94;5048178;28;20041;-75
2022/01/04 08:25:06;;;;;;;9.30;4.32;;;;;;;18.73;62.17;101639.41;5053486;28;20095;-75
2022/01/04 08:27:34;;;;;;;7.30;2.45;;;;;;;18.69;61.94;101639.44;5027083;28;20068;-75
2022/01/04 08:30:02;;;;;;;7.57;3.95;;;;;;;18.63;61.83;101641.25;5041483;28;20042;-75
2022/01/04 08:32:30;;;;;;;5.70;3.08;;;;;;;18.60;62.03;101636.78;5042055;28;20040;-75
2022/01/04 08:34:58;;;;;;;11.98;5.25;;;;;;;18.53;62.35;101636.75;5046657;28;20033;-75
2022/01/04 08:37:26;;;;;;;10.07;4.18;;;;;;;18.42;62.17;101638.59;5045061;28;20090;-75
2022/01/04 08:39:56;;;;;;;13.73;6.90;;;;;;;18.26;61.83;101633.25;5054472;28;20115;-74
2022/01/04 08:42:24;;;;;;;15.35;6.90;;;;;;;18.15;61.84;101631.50;5063973;28;20052;-74
2022/01/04 08:44:52;;;;;;;15.02;8.20;;;;;;;18.12;61.93;101637.72;5068564;28;20040;-74
2022/01/04 08:47:20;;;;;;;13.48;7.25;;;;;;;18.06;62.04;101634.19;5068749;28;20045;-74
2022/01/04 08:49:47;;;;;;;12.90;5.85;;;;;;;18.05;62.33;101627.94;5063711;28;20064;-74
2022/01/04 08:52:15;;;;;;;10.23;4.88;;;;;;;18.03;62.51;101627.06;5063686;28;20052;-74
2022/01/04 08:54:43;;;;;;;10.82;4.38;;;;;;;18.07;62.60;101625.28;5067197;28;20135;-74
2022/01/04 08:57:13;;;;;;;9.80;4.00;;;;;;;18.17;62.51;101629.72;5062870;28;20055;-74
2022/01/04 08:59:40;;;;;;;32.10;9.00;;;;;;;18.14;62.39;101621.72;5068109;28;20113;-74
2022/01/04 09:02:09;;;;;;;18.27;10.10;;;;;;;18.15;62.24;101629.72;5066688;28;20095;-74
2022/01/04 09:04:36;;;;;;;15.43;6.57;;;;;;;18.14;62.51;101622.59;5051674;28;20045;-74
2022/01/04 09:07:05;;;;;;;20.50;12.40;;;;;;;18.11;62.63;101621.72;5028294;28;20042;-74
2022/01/04 09:09:33;;;;;;;36.42;19.70;;;;;;;18.04;62.97;101620.84;5031025;28;20505;-74
2022/01/04 09:12:01;;;;;;;31.38;16.02;;;;;;;18.03;63.30;101618.16;5034852;28;20497;-74
2022/01/04 09:14:42;;;;;;;28.33;15.80;;;;;;;18.09;63.14;101612.81;5051817;28;20049;-74
2022/01/04 09:19:55;;;;;;;15.00;6.47;;;;;;;18.24;62.54;101611.00;5054578;28;20049;-74
2022/01/04 09:22:23;;;;;;;13.95;5.18;;;;;;;18.30;61.95;101613.66;5052146;28;20041;-75
2022/01/04 09:24:51;;;;;;;13.30;7.05;;;;;;;18.35;61.97;101602.94;5048724;28;20041;-74
2022/01/04 09:27:19;;;;;;;8.55;3.40;;;;;;;18.54;61.73;101610.03;5048047;28;20037;-74
2022/01/04 09:29:49;;;;;;;8.95;3.20;;;;;;;18.69;61.75;101615.34;5049980;28;20057;-74
2022/01/04 09:32:19;;;;;;;8.05;3.17;;;;;;;18.78;61.89;101609.06;5031474;28;20040;-74
2022/01/04 09:34:46;;;;;;;9.57;3.20;;;;;;;18.89;61.58;101607.25;5033135;28;20060;-74
2022/01/04 09:37:14;;;;;;;9.95;3.47;;;;;;;18.88;60.86;101602.78;5050542;28;20712;-74
2022/01/04 09:39:43;;;;;;;10.48;4.13;;;;;;;18.93;61.12;101603.63;5049063;28;20100;-74
2022/01/04 09:42:10;;;;;;;8.35;3.00;;;;;;;19.02;61.51;101595.56;5049224;28;20048;-75
2022/01/04 09:44:39;;;;;;;11.73;3.75;;;;;;;19.05;61.35;101586.63;5049324;28;20124;-74
2022/01/04 09:47:08;;;;;;;11.52;4.32;;;;;;;19.07;61.21;101590.19;5048153;28;20045;-74
2022/01/04 09:49:36;;;;;;;10.35;4.63;;;;;;;19.04;60.98;101592.84;5048565;28;20474;-74
2022/01/04 09:52:08;;;;;;;11.20;4.10;;;;;;;19.06;61.07;101572.34;5049126;28;20045;-74
2022/01/04 09:54:39;;;;;;;13.20;4.80;;;;;;;19.22;61.06;101570.47;5042192;28;20532;-74
2022/01/04 09:57:07;;;;;;;8.88;5.18;;;;;;;19.32;61.00;101569.47;5031534;28;20033;-74
2022/01/04 09:59:35;;;;;;;10.98;6.13;;;;;;;19.22;60.95;101573.16;5047973;28;20048;-75
2022/01/04 10:02:15;;;;;;;12.63;5.20;;;;;;;19.18;61.27;101563.34;5030346;28;20048;-74
2022/01/04 10:04:44;;;;;;;15.20;8.80;;;;;;;19.24;61.51;101564.19;5036791;28;20049;-74
2022/01/04 10:07:12;;;;;;;8.35;4.50;;;;;;;19.11;61.36;101565.16;5048569;28;20060;-75
2022/01/04 10:09:45;;;;;;;10.88;4.65;;;;;;;18.96;61.01;101563.50;5048348;28;20056;-73
2022/01/04 10:12:15;;;;;;;8.65;4.80;;;;;;;18.80;61.25;101559.13;5048458;28;20053;-74
2022/01/04 10:14:46;;;;;;;11.35;5.00;;;;;;;18.73;61.23;101560.03;5048448;28;20049;-74
2022/01/04 10:17:17;;;;;;;22.13;8.15;;;;;;;18.66;60.82;101555.63;5047984;28;20453;-74
2022/01/04 10:19:48;;;;;;;10.40;6.03;;;;;;;18.66;60.89;101545.81;5047297;28;20140;-74
2022/01/04 10:22:23;;;;;;;12.25;3.78;;;;;;;18.74;60.65;101544.88;5050051;28;20041;-74
2022/01/04 10:25:08;;;;;;;9.60;5.32;;;;;;;18.94;60.37;101538.53;5049131;28;20037;-74
2022/01/04 10:27:38;;;;;;;10.35;5.28;;;;;;;18.90;59.88;101543.91;5047995;28;20132;-74
2022/01/04 10:30:30;;;;;;;13.93;6.50;;;;;;;18.87;59.99;101544.81;5033409;28;20044;-74
2022/01/04 10:33:03;;;;;;;12.07;5.80;;;;;;;18.91;60.27;101541.19;5068662;28;20044;-73
2022/01/04 10:35:34;;;;;;;7.95;4.35;;;;;;;18.86;60.56;101535.00;5069009;28;20053;-74
2022/01/04 10:38:10;;;;;;;6.90;3.60;;;;;;;18.98;61.07;101534.03;5067553;28;20068;-74
2022/01/04 10:40:39;;;;;;;7.97;3.40;;;;;;;19.23;60.90;101530.28;5065056;28;20140;-75
2022/01/04 10:43:12;;;;;;;8.20;3.10;;;;;;;19.58;60.95;101521.97;5068324;28;20055;-73
2022/01/04 10:45:42;;;;;;;5.68;2.10;;;;;;;19.78;60.75;101521.78;5068431;28;20048;-73
2022/01/04 10:48:15;;;;;;;7.55;2.08;;;;;;;20.00;60.80;101515.31;5066992;28;20041;-73
2022/01/04 10:50:44;;;;;;;7.22;2.28;;;;;;;20.10;60.16;101508.03;5067559;28;20040;-73
2022/01/04 10:53:21;;;;;;;5.93;2.08;;;;;;;20.26;60.13;101506.97;5049356;28;20040;-73
2022/01/04 10:55:50;;;;;;;5.65;1.45;;;;;;;20.42;60.25;101500.53;5051826;28;20052;-73
2022/01/04 10:58:35;;;;;;;5.88;2.28;;;;;;;20.63;59.55;101502.91;5067629;28;20515;-74
2022/01/04 11:01:08;;;;;;;6.40;2.80;;;;;;;20.67;59.02;101501.09;5067293;28;20125;-74
2022/01/04 11:03:40;;;;;;;9.50;3.20;;;;;;;20.71;58.93;101504.59;5069342;28;20048;-74
2022/01/04 11:06:11;;;;;;;7.57;2.65;;;;;;;20.55;58.14;101496.75;5068326;28;20037;-74
2022/01/04 11:08:39;;;;;;;8.05;2.55;;;;;;;20.45;58.24;101507.66;5063621;28;20044;-74
2022/01/04 11:11:08;;;;;;;8.90;2.38;;;;;;;20.17;57.21;101494.53;5048864;28;20515;-74
2022/01/04 11:13:36;;;;;;;6.10;2.60;;;;;;;20.06;57.12;101496.47;5060880;28;20114;-74
2022/01/04 11:16:06;;;;;;;15.32;8.07;;;;;;;20.12;57.11;101487.47;5067984;28;20508;-75
2022/01/04 11:18:35;;;;;;;8.07;2.70;;;;;;;19.97;56.57;101490.31;5067528;28;20063;-73
2022/01/04 11:21:06;;;;;;;7.45;2.70;;;;;;;19.88;56.37;101494.91;5067432;28;20123;-74
2022/01/04 11:23:34;;;;;;;8.65;2.58;;;;;;;19.83;56.00;101490.47;5067716;28;20040;-74
2022/01/04 11:26:05;;;;;;;5.45;2.00;;;;;;;19.64;55.79;101488.88;5068613;28;20041;-74
2022/01/04 11:28:35;;;;;;;11.77;3.10;;;;;;;19.45;55.88;101488.16;5066849;28;20041;-74
2022/01/04 11:31:35;;;;;;;5.90;2.03;;;;;;;19.47;55.93;101475.66;5066705;28;20071;-73